Time;durP1;ratioP1;P1;durP2;ratioP2;P2;SDS_P1;SDS_P2;PMS_P1;PMS_P2;Temp;Humidity;BMP_temperature;BMP_pressure;BME280_temperature;BME280_humidity;BME280_pressure;Samples;Min_cycle;Max_cycle;Signal;HPM_P1;HPM_P2
2024/03/23 00:01:41;;;;;;;5.35;3.40;;;10.00;90.30;;;;;;5067232;28;20204;-87
2024/03/23 00:04:12;;;;;;;4.75;3.10;;;10.00;90.90;;;;;;5062243;28;20198;-86
2024/03/23 00:06:42;;;;;;;3.83;3.22;;;10.00;91.10;;;;;;5069242;28;20231;-87
2024/03/23 00:09:12;;;;;;;4.65;3.08;;;9.90;91.70;;;;;;5076014;28;20292;-87
2024/03/23 00:11:42;;;;;;;6.63;3.20;;;9.90;91.80;;;;;;5070155;28;20207;-87
2024/03/23 00:14:12;;;;;;;5.47;3.50;;;9.90;91.70;;;;;;5069251;28;20229;-88
2024/03/23 00:16:42;;;;;;;6.97;2.97;;;9.90;92.00;;;;;;5063484;28;20271;-87
2024/03/23 00:19:12;;;;;;;5.45;3.25;;;9.90;91.90;;;;;;5073008;28;20193;-88
2024/03/23 00:21:42;;;;;;;3.85;3.10;;;9.90;92.10;;;;;;5063836;28;20561;-87
2024/03/23 00:24:13;;;;;;;4.88;3.35;;;9.80;92.10;;;;;;5076835;28;20194;-87
2024/03/23 00:26:42;;;;;;;4.03;2.97;;;9.80;91.70;;;;;;5072057;28;20225;-86
2024/03/23 00:29:13;;;;;;;6.15;3.40;;;9.80;91.70;;;;;;5068926;28;20204;-87
2024/03/23 00:31:42;;;;;;;3.65;3.10;;;9.90;91.30;;;;;;5067971;28;20651;-87
2024/03/23 00:34:13;;;;;;;5.75;3.42;;;9.90;90.70;;;;;;5070316;28;20233;-87
2024/03/23 00:36:42;;;;;;;5.38;3.33;;;9.90;90.70;;;;;;5065955;28;20603;-87
2024/03/23 00:39:14;;;;;;;4.47;3.30;;;9.80;91.20;;;;;;5070828;28;20614;-87
2024/03/23 00:41:43;;;;;;;3.38;2.85;;;9.80;90.60;;;;;;5067046;28;20676;-87
2024/03/23 00:44:14;;;;;;;3.85;2.45;;;9.70;90.90;;;;;;5073887;28;20243;-86
2024/03/23 00:46:44;;;;;;;4.43;2.95;;;9.70;91.00;;;;;;5070290;28;20288;-88
2024/03/23 00:49:15;;;;;;;4.65;2.95;;;9.70;90.60;;;;;;5068536;28;20291;-87
2024/03/23 00:51:44;;;;;;;4.18;2.70;;;9.70;90.60;;;;;;5071857;28;20939;-87
2024/03/23 00:54:10;;;;;;;3.78;2.75;;;9.70;90.60;;;;;;5073386;28;20325;-86
2024/03/23 00:56:36;;;;;;;3.47;2.63;;;9.70;90.60;;;;;;5069495;28;20197;-87
2024/03/23 00:59:03;;;;;;;9.23;2.58;;;9.60;90.60;;;;;;5067563;28;20214;-87
2024/03/23 01:01:29;;;;;;;3.40;2.58;;;9.60;90.60;;;;;;5067757;28;20196;-87
2024/03/23 01:03:55;;;;;;;3.97;2.50;;;9.50;90.50;;;;;;5075785;28;20653;-88
2024/03/23 01:06:21;;;;;;;3.95;2.67;;;9.50;90.60;;;;;;5070741;28;20568;-88
2024/03/23 01:08:50;;;;;;;3.10;2.60;;;9.40;90.50;;;;;;5054914;28;20199;-87
2024/03/23 01:11:15;;;;;;;4.25;2.70;;;9.50;90.60;;;;;;5074302;28;20205;-87
2024/03/23 01:13:42;;;;;;;7.38;2.95;;;9.50;90.40;;;;;;5068279;28;20459;-87
2024/03/23 01:16:08;;;;;;;4.65;2.80;;;9.50;90.20;;;;;;5071183;28;20210;-87
2024/03/23 01:18:35;;;;;;;5.53;2.75;;;9.50;90.40;;;;;;5066633;28;20231;-87
2024/03/23 01:21:01;;;;;;;4.32;3.03;;;9.50;90.10;;;;;;5068340;28;20553;-92
2024/03/23 01:23:27;;;;;;;3.45;2.78;;;9.60;88.90;;;;;;5069699;28;20197;-89
2024/03/23 01:25:55;;;;;;;3.97;2.60;;;9.50;89.30;;;;;;5067349;28;20194;-87
2024/03/23 01:28:22;;;;;;;5.68;2.35;;;9.40;90.40;;;;;;5067152;28;20201;-87
2024/03/23 01:30:48;;;;;;;4.50;2.50;;;9.40;90.20;;;;;;5066946;28;20254;-86
2024/03/23 01:33:15;;;;;;;2.72;2.35;;;9.30;90.10;;;;;;5077596;28;20201;-86
2024/03/23 01:35:41;;;;;;;6.50;2.67;;;9.20;90.10;;;;;;5072520;28;20694;-87
2024/03/23 01:38:08;;;;;;;2.97;2.50;;;9.20;90.50;;;;;;5059269;28;20209;-86
2024/03/23 01:40:33;;;;;;;2.58;2.10;;;9.10;90.80;;;;;;5070007;28;20204;-87
2024/03/23 01:43:05;;;;;;;2.88;2.40;;;9.10;90.50;;;;;;5072369;28;20685;-86
2024/03/23 01:45:31;;;;;;;3.95;2.55;;;9.10;90.50;;;;;;5068408;28;20220;-87
2024/03/23 01:47:58;;;;;;;3.10;2.28;;;9.00;90.50;;;;;;5069768;28;20201;-86
2024/03/23 01:50:25;;;;;;;7.15;2.53;;;9.00;90.50;;;;;;5071464;28;20205;-87
2024/03/23 01:52:52;;;;;;;4.20;2.20;;;9.00;90.50;;;;;;5069716;28;20319;-87
2024/03/23 01:55:18;;;;;;;3.95;2.55;;;9.00;90.50;;;;;;5067732;28;20224;-86
2024/03/23 01:57:45;;;;;;;2.50;2.30;;;9.00;90.50;;;;;;5071294;28;21148;-87
2024/03/23 02:00:14;;;;;;;5.93;2.20;;;9.10;90.50;;;;;;5070269;28;20205;-91
2024/03/23 02:02:44;;;;;;;2.83;2.30;;;9.10;90.50;;;;;;5072791;28;20201;-87
2024/03/23 02:05:11;;;;;;;5.13;2.40;;;9.10;90.30;;;;;;5071061;28;20193;-88
2024/03/23 02:07:39;;;;;;;5.45;2.60;;;9.10;90.10;;;;;;5066253;28;20201;-87
2024/03/23 02:10:06;;;;;;;5.05;2.20;;;9.20;90.00;;;;;;5062502;28;20208;-87
2024/03/23 02:12:33;;;;;;;4.07;2.10;;;9.20;90.10;;;;;;5067649;28;20201;-87
2024/03/23 02:14:59;;;;;;;3.35;2.38;;;9.10;90.60;;;;;;5066898;28;20276;-86
2024/03/23 02:17:27;;;;;;;3.50;2.50;;;9.10;90.00;;;;;;5070664;28;20246;-87
2024/03/23 02:19:53;;;;;;;2.45;2.17;;;9.20;90.00;;;;;;5066720;28;20197;-86
2024/03/23 02:22:19;;;;;;;2.60;2.10;;;9.10;89.50;;;;;;5064442;28;20673;-87
2024/03/23 02:24:46;;;;;;;4.80;2.35;;;9.10;89.90;;;;;;5068655;28;20582;-86
2024/03/23 02:27:13;;;;;;;4.20;2.30;;;9.00;90.20;;;;;;5062854;28;20198;-87
2024/03/23 02:29:39;;;;;;;2.85;2.10;;;8.90;90.40;;;;;;5070785;28;20264;-87
2024/03/23 02:32:08;;;;;;;4.03;2.30;;;8.90;90.40;;;;;;5060524;28;20674;-86
2024/03/23 02:34:34;;;;;;;3.00;2.08;;;8.80;90.40;;;;;;5067379;28;20205;-87
2024/03/23 02:37:01;;;;;;;3.70;2.10;;;8.80;90.40;;;;;;5066829;28;20212;-86
2024/03/23 02:39:27;;;;;;;4.50;2.20;;;8.80;90.40;;;;;;5067720;28;20606;-85
2024/03/23 02:41:55;;;;;;;4.85;2.20;;;8.80;90.40;;;;;;5071403;28;20205;-86
2024/03/23 02:44:21;;;;;;;3.17;2.17;;;8.70;90.40;;;;;;5071464;28;20221;-86
2024/03/23 02:46:48;;;;;;;4.60;2.08;;;8.70;90.80;;;;;;5066403;28;20198;-86
2024/03/23 02:49:14;;;;;;;2.33;2.10;;;8.70;90.90;;;;;;5063279;28;20212;-87
2024/03/23 02:51:41;;;;;;;2.97;2.25;;;8.70;91.00;;;;;;5066586;28;20197;-86
2024/03/23 02:54:07;;;;;;;2.42;1.92;;;8.60;91.40;;;;;;5071728;28;20700;-86
2024/03/23 02:56:33;;;;;;;2.50;2.30;;;8.60;91.20;;;;;;5070408;28;20201;-86
2024/03/23 02:59:01;;;;;;;4.97;2.00;;;8.70;90.90;;;;;;5070862;28;20657;-87
2024/03/23 03:01:28;;;;;;;4.13;2.10;;;8.70;90.80;;;;;;5074948;28;20712;-86
2024/03/23 03:03:53;;;;;;;2.50;2.08;;;8.70;90.40;;;;;;5071587;28;20209;-86
2024/03/23 03:06:26;;;;;;;3.55;2.20;;;8.80;90.40;;;;;;5073384;28;20219;-86
2024/03/23 03:08:52;;;;;;;2.65;2.13;;;8.80;90.40;;;;;;5068090;28;20204;-87
2024/03/23 03:11:19;;;;;;;2.72;2.10;;;8.90;90.40;;;;;;5065119;28;20197;-86
2024/03/23 03:13:45;;;;;;;2.40;2.20;;;8.90;90.40;;;;;;5073522;28;20589;-86
2024/03/23 03:16:14;;;;;;;2.40;2.00;;;8.90;90.40;;;;;;5067979;28;20205;-86
2024/03/23 03:18:40;;;;;;;3.08;2.30;;;9.00;90.00;;;;;;5060755;28;20251;-89
2024/03/23 03:21:10;;;;;;;2.42;2.00;;;9.00;88.90;;;;;;5072621;28;20197;-87
2024/03/23 03:23:36;;;;;;;2.58;1.98;;;9.10;88.10;;;;;;5072894;28;20223;-87
2024/03/23 03:26:03;;;;;;;4.85;2.00;;;9.20;86.80;;;;;;5070200;28;20198;-87
2024/03/23 03:28:30;;;;;;;2.25;2.05;;;9.30;86.30;;;;;;5075908;28;20642;-90
2024/03/23 03:30:57;;;;;;;4.30;2.20;;;9.40;84.90;;;;;;5069112;28;20359;-87
2024/03/23 03:33:25;;;;;;;5.57;2.20;;;9.50;82.70;;;;;;5075988;28;20572;-87
2024/03/23 03:35:52;;;;;;;3.22;2.05;;;9.50;83.00;;;;;;5079967;28;20213;-88
2024/03/23 03:38:18;;;;;;;2.47;1.90;;;9.50;82.40;;;;;;5061091;28;20722;-87
2024/03/23 03:40:45;;;;;;;4.22;2.20;;;9.50;82.70;;;;;;5073141;28;20204;-88
2024/03/23 03:43:11;;;;;;;4.63;2.10;;;9.40;83.20;;;;;;5066912;28;20232;-86
2024/03/23 03:45:38;;;;;;;3.50;2.38;;;9.30;82.70;;;;;;5074121;28;20188;-86
2024/03/23 03:48:04;;;;;;;4.28;2.10;;;9.30;83.20;;;;;;5064027;28;20201;-86
2024/03/23 03:50:32;;;;;;;4.32;2.38;;;9.20;83.80;;;;;;5069079;28;20197;-87
2024/03/23 03:52:58;;;;;;;3.28;2.00;;;9.20;84.20;;;;;;5068848;28;20200;-87
2024/03/23 03:55:25;;;;;;;4.32;2.08;;;9.10;84.00;;;;;;5072874;28;20193;-89
2024/03/23 03:57:51;;;;;;;3.33;2.00;;;9.10;84.30;;;;;;5073775;28;20229;-86
2024/03/23 04:00:18;;;;;;;3.22;2.33;;;9.20;84.30;;;;;;5072155;28;20618;-86
2024/03/23 04:02:44;;;;;;;3.70;2.10;;;9.20;83.70;;;;;;5068385;28;20209;-87
2024/03/23 04:05:10;;;;;;;4.32;2.47;;;9.30;83.40;;;;;;5072750;28;20197;-87
2024/03/23 04:07:38;;;;;;;4.00;2.20;;;9.40;82.50;;;;;;5067078;28;20953;-87
2024/03/23 04:10:07;;;;;;;2.90;1.98;;;9.40;83.10;;;;;;5067399;28;20221;-86
2024/03/23 04:12:33;;;;;;;4.55;2.30;;;9.30;83.20;;;;;;5049039;28;20227;-86
2024/03/23 04:15:03;;;;;;;4.03;2.00;;;9.40;82.40;;;;;;5068603;28;20205;-86
2024/03/23 04:17:31;;;;;;;2.28;2.08;;;9.50;80.80;;;;;;5071803;28;20221;-86
2024/03/23 04:19:59;;;;;;;4.95;2.10;;;9.50;81.20;;;;;;5075048;28;20567;-87
2024/03/23 04:22:26;;;;;;;3.00;2.08;;;9.50;81.30;;;;;;5066109;28;20213;-87
2024/03/23 04:24:54;;;;;;;4.07;2.42;;;9.60;80.40;;;;;;5070410;28;20725;-87
2024/03/23 04:27:20;;;;;;;3.00;2.20;;;9.70;78.70;;;;;;5065142;28;20237;-87
2024/03/23 04:29:48;;;;;;;3.72;2.55;;;9.90;76.90;;;;;;5051769;28;20240;-87
2024/03/23 04:32:14;;;;;;;3.45;2.25;;;9.90;75.80;;;;;;5073020;28;20193;-87
2024/03/23 04:34:42;;;;;;;2.78;2.15;;;9.90;75.40;;;;;;5079145;28;20337;-86
2024/03/23 04:37:08;;;;;;;4.70;2.17;;;9.90;76.20;;;;;;5072277;28;20642;-87
2024/03/23 04:39:35;;;;;;;3.08;2.40;;;10.00;73.00;;;;;;5070365;28;20221;-87
2024/03/23 04:42:04;;;;;;;4.40;2.25;;;10.00;73.00;;;;;;5071320;28;20201;-87
2024/03/23 04:44:31;;;;;;;5.18;2.30;;;9.90;74.90;;;;;;5068456;28;20213;-86
2024/03/23 04:46:58;;;;;;;3.15;2.00;;;9.80;74.70;;;;;;5068368;28;20204;-86
2024/03/23 04:49:25;;;;;;;2.28;1.77;;;9.80;74.70;;;;;;5064771;28;20218;-87
2024/03/23 04:51:53;;;;;;;4.82;2.20;;;9.70;74.60;;;;;;5065215;28;20228;-86
2024/03/23 04:54:20;;;;;;;2.35;1.75;;;9.70;74.60;;;;;;5064957;28;20197;-90
2024/03/23 04:56:46;;;;;;;4.07;2.00;;;9.60;74.60;;;;;;5066268;28;20198;-87
2024/03/23 04:59:14;;;;;;;2.25;2.05;;;9.60;74.60;;;;;;5077265;28;20662;-86
2024/03/23 05:01:41;;;;;;;3.38;1.98;;;9.50;74.90;;;;;;5068670;28;20194;-86
2024/03/23 05:04:09;;;;;;;3.45;2.20;;;9.40;76.20;;;;;;5071292;28;20780;-86
2024/03/23 05:06:34;;;;;;;3.75;2.03;;;9.40;77.00;;;;;;5070902;28;20200;-86
2024/03/23 05:09:03;;;;;;;2.97;2.00;;;9.30;76.90;;;;;;5065518;28;20206;-87
2024/03/23 05:11:29;;;;;;;2.25;1.70;;;9.20;78.20;;;;;;5057588;28;20226;-87
2024/03/23 05:13:56;;;;;;;2.70;1.90;;;9.10;78.90;;;;;;5066018;28;20233;-86
2024/03/23 05:16:23;;;;;;;2.83;2.10;;;9.10;78.80;;;;;;5068490;28;20235;-87
2024/03/23 05:18:50;;;;;;;2.35;1.80;;;9.00;78.80;;;;;;5070721;28;20232;-86
2024/03/23 05:21:16;;;;;;;3.17;1.80;;;9.00;79.10;;;;;;5045648;28;20202;-86
2024/03/23 05:23:43;;;;;;;2.50;1.73;;;9.00;78.90;;;;;;5070132;28;20262;-86
2024/03/23 05:26:09;;;;;;;2.28;1.77;;;9.00;79.50;;;;;;5063736;28;20204;-86
2024/03/23 05:28:36;;;;;;;2.03;1.83;;;8.90;80.50;;;;;;5062830;28;20203;-86
2024/03/23 05:31:02;;;;;;;2.80;1.80;;;8.90;80.70;;;;;;5070537;28;20201;-86
2024/03/23 05:33:30;;;;;;;3.17;1.67;;;8.90;81.40;;;;;;5059102;28;20221;-86
2024/03/23 05:35:58;;;;;;;2.78;2.20;;;8.90;81.00;;;;;;5077649;28;20204;-87
2024/03/23 05:38:26;;;;;;;2.85;1.80;;;9.00;80.30;;;;;;5072675;28;20248;-86
2024/03/23 05:40:55;;;;;;;6.38;2.10;;;9.00;80.30;;;;;;5065831;28;20205;-87
2024/03/23 05:43:22;;;;;;;4.35;1.88;;;9.10;78.60;;;;;;5080660;28;20708;-87
2024/03/23 05:45:53;;;;;;;2.80;2.00;;;9.10;78.60;;;;;;5071060;28;20193;-86
2024/03/23 05:48:20;;;;;;;2.47;1.58;;;9.20;78.80;;;;;;5060071;28;20817;-86
2024/03/23 05:50:47;;;;;;;2.85;1.92;;;9.20;78.60;;;;;;5070394;28;20197;-87
2024/03/23 05:53:15;;;;;;;2.90;1.80;;;9.30;78.50;;;;;;5066511;28;20200;-86
2024/03/23 05:55:41;;;;;;;4.25;1.85;;;9.40;78.40;;;;;;5066187;28;20201;-86
2024/03/23 05:58:08;;;;;;;2.50;1.90;;;9.50;75.70;;;;;;5073700;28;20199;-86
2024/03/23 06:00:34;;;;;;;2.50;1.70;;;9.60;74.50;;;;;;5074556;28;20662;-86
2024/03/23 06:03:01;;;;;;;3.80;1.65;;;9.60;74.50;;;;;;5069531;28;20192;-86
2024/03/23 06:05:27;;;;;;;1.90;1.70;;;9.70;72.00;;;;;;5058245;28;20580;-86
2024/03/23 06:07:55;;;;;;;2.08;1.50;;;9.70;73.30;;;;;;5069057;28;20198;-86
2024/03/23 06:10:21;;;;;;;2.70;1.70;;;9.80;72.20;;;;;;5068633;28;20673;-87
2024/03/23 06:12:49;;;;;;;2.10;1.70;;;9.90;71.30;;;;;;5066052;28;20202;-86
2024/03/23 06:15:14;;;;;;;2.85;1.58;;;10.00;69.50;;;;;;5075451;28;20263;-86
2024/03/23 06:17:42;;;;;;;2.72;1.80;;;10.10;66.60;;;;;;5072445;28;20678;-86
2024/03/23 06:20:10;;;;;;;2.63;1.80;;;10.20;65.40;;;;;;5076055;28;20217;-86
2024/03/23 06:22:36;;;;;;;2.08;1.70;;;10.30;61.40;;;;;;5070243;28;20674;-87
2024/03/23 06:25:04;;;;;;;1.90;1.60;;;10.40;62.00;;;;;;5071634;28;20255;-87
2024/03/23 06:27:31;;;;;;;3.55;1.85;;;10.50;57.90;;;;;;5064427;28;20230;-87
2024/03/23 06:29:57;;;;;;;2.22;1.60;;;10.70;53.20;;;;;;5069449;28;20666;-86
2024/03/23 06:32:25;;;;;;;2.22;1.40;;;10.90;51.30;;;;;;5063745;28;20204;-86
2024/03/23 06:34:50;;;;;;;3.65;1.65;;;11.00;48.90;;;;;;5076242;28;20189;-86
2024/03/23 06:37:17;;;;;;;2.85;1.40;;;11.20;47.80;;;;;;5074525;28;20203;-86
2024/03/23 06:39:46;;;;;;;2.65;1.60;;;11.30;48.00;;;;;;5075212;28;20220;-87
2024/03/23 06:42:14;;;;;;;3.25;1.50;;;11.80;48.40;;;;;;5067951;28;20197;-86
2024/03/23 06:44:40;;;;;;;2.00;1.60;;;12.40;42.60;;;;;;5075103;28;20217;-86
2024/03/23 06:47:07;;;;;;;1.83;1.42;;;13.10;36.40;;;;;;5075736;28;20196;-88
2024/03/23 06:49:33;;;;;;;1.88;1.40;;;13.60;32.20;;;;;;5070334;28;20203;-88
2024/03/23 06:52:00;;;;;;;3.60;1.30;;;13.60;32.50;;;;;;5073784;28;20639;-87
2024/03/23 06:54:27;;;;;;;5.05;1.55;;;13.50;30.40;;;;;;5078831;28;20201;-88
2024/03/23 06:56:53;;;;;;;2.50;1.55;;;13.50;31.90;;;;;;5052142;28;20212;-87
2024/03/23 06:59:21;;;;;;;1.67;1.50;;;14.00;30.10;;;;;;5066707;28;20221;-88
2024/03/23 07:01:47;;;;;;;3.22;1.63;;;14.60;27.50;;;;;;5069133;28;20570;-88
2024/03/23 07:04:14;;;;;;;3.55;1.67;;;15.20;27.90;;;;;;5074738;28;20208;-87
2024/03/23 07:06:43;;;;;;;2.88;1.60;;;15.80;22.90;;;;;;5075022;28;20204;-90
2024/03/23 07:09:10;;;;;;;1.85;1.38;;;16.40;21.10;;;;;;5070174;28;20220;-87
2024/03/23 07:11:36;;;;;;;3.13;1.55;;;16.70;20.00;;;;;;5071603;28;20205;-89
2024/03/23 07:14:03;;;;;;;1.60;1.25;;;16.70;20.10;;;;;;5066562;28;20236;-86
2024/03/23 07:16:31;;;;;;;1.98;1.73;;;16.50;20.60;;;;;;5076411;28;20645;-86
2024/03/23 07:18:58;;;;;;;1.58;1.38;;;16.10;21.80;;;;;;5071403;28;20257;-86
2024/03/23 07:21:24;;;;;;;1.48;1.30;;;15.80;22.40;;;;;;5066904;28;20259;-86
2024/03/23 07:23:51;;;;;;;1.75;1.63;;;15.50;24.10;;;;;;5069454;28;20641;-85
2024/03/23 07:26:17;;;;;;;4.97;1.80;;;15.30;23.90;;;;;;5065901;28;20212;-87
2024/03/23 07:28:46;;;;;;;4.72;2.15;;;15.10;25.30;;;;;;5064753;28;20209;-86
2024/03/23 07:31:13;;;;;;;2.95;1.63;;;15.00;25.70;;;;;;5070626;28;20650;-87
2024/03/23 07:33:45;;;;;;;1.85;1.65;;;15.00;26.50;;;;;;5073695;28;20206;-86
2024/03/23 07:36:11;;;;;;;2.15;1.70;;;14.90;26.60;;;;;;5069976;28;20205;-85
2024/03/23 07:38:38;;;;;;;2.60;1.73;;;15.00;29.00;;;;;;5067763;28;20286;-87
2024/03/23 07:41:05;;;;;;;1.92;1.70;;;15.10;26.40;;;;;;5070383;28;20220;-85
2024/03/23 07:43:32;;;;;;;3.80;1.92;;;15.20;26.50;;;;;;5068028;28;20220;-86
2024/03/23 07:45:58;;;;;;;4.15;1.95;;;15.10;27.90;;;;;;5074038;28;21034;-88
2024/03/23 07:48:26;;;;;;;3.90;2.03;;;14.90;26.70;;;;;;5069379;28;20228;-86
2024/03/23 07:51:01;;;;;;;2.10;1.90;;;14.90;27.70;;;;;;5067680;28;20201;-86
2024/03/23 07:53:28;;;;;;;5.30;1.95;;;14.70;29.60;;;;;;5067246;28;20188;-86
2024/03/23 07:55:58;;;;;;;13.25;2.45;;;14.20;37.10;;;;;;5070764;28;20309;-85
2024/03/23 07:58:25;;;;;;;5.10;3.00;;;13.70;50.20;;;;;;5068379;28;20204;-87
2024/03/23 08:00:52;;;;;;;2.90;1.70;;;13.40;54.60;;;;;;5067941;28;20279;-87
2024/03/23 08:03:18;;;;;;;2.95;2.10;;;13.00;56.40;;;;;;5063526;28;20213;-86
2024/03/23 08:05:47;;;;;;;2.20;1.95;;;12.60;61.30;;;;;;5067848;28;20209;-89
2024/03/23 08:08:16;;;;;;;4.80;2.17;;;12.40;70.10;;;;;;5068560;28;20655;-86
2024/03/23 08:10:51;;;;;;;3.60;2.30;;;12.10;79.00;;;;;;5070177;28;20205;-87
2024/03/23 08:13:19;;;;;;;3.10;2.13;;;11.80;88.00;;;;;;5065638;28;20654;-87
2024/03/23 08:15:46;;;;;;;2.35;2.15;;;11.50;91.30;;;;;;5072117;28;20209;-86
2024/03/23 08:18:15;;;;;;;3.10;2.40;;;11.20;92.80;;;;;;5070657;28;20229;-88
2024/03/23 08:20:41;;;;;;;5.07;2.30;;;11.00;94.20;;;;;;5071937;28;20716;-86
2024/03/23 08:23:08;;;;;;;2.50;2.30;;;10.90;95.40;;;;;;5065425;28;20205;-86
2024/03/23 08:25:35;;;;;;;4.47;2.50;;;10.80;96.90;;;;;;5064767;28;20202;-86
2024/03/23 08:28:02;;;;;;;2.92;2.40;;;10.70;98.00;;;;;;5064247;28;20210;-87
2024/03/23 08:30:29;;;;;;;4.15;2.47;;;10.60;99.30;;;;;;5073510;28;20208;-85
2024/03/23 08:32:55;;;;;;;3.95;2.38;;;10.50;99.70;;;;;;5062422;28;20304;-85
2024/03/23 08:35:21;;;;;;;3.50;2.30;;;10.50;99.90;;;;;;5065593;28;20277;-84
2024/03/23 08:37:48;;;;;;;4.18;2.38;;;10.50;99.90;;;;;;5075162;28;20194;-83
2024/03/23 08:40:14;;;;;;;4.97;2.20;;;10.40;99.90;;;;;;5068082;28;20228;-82
2024/03/23 08:42:42;;;;;;;4.63;2.55;;;10.30;99.90;;;;;;5068334;28;20205;-83
2024/03/23 08:45:08;;;;;;;2.92;2.22;;;10.10;99.90;;;;;;5069766;28;20200;-82
2024/03/23 08:47:36;;;;;;;2.45;2.25;;;9.90;99.90;;;;;;5072063;28;20198;-82
2024/03/23 08:50:02;;;;;;;3.40;2.10;;;9.80;99.90;;;;;;5066374;28;20198;-82
2024/03/23 08:52:29;;;;;;;2.05;1.95;;;9.70;99.90;;;;;;5076292;28;20255;-84
2024/03/23 08:54:55;;;;;;;6.50;5.20;;;9.60;99.90;;;;;;5072366;28;20217;-82
2024/03/23 08:57:22;;;;;;;3.35;2.35;;;9.50;99.90;;;;;;5070609;28;20295;-85
2024/03/23 08:59:49;;;;;;;2.55;2.35;;;9.50;99.90;;;;;;5064782;28;20221;-82
2024/03/23 09:02:16;;;;;;;3.22;2.40;;;9.40;99.90;;;;;;5062990;28;20971;-82
2024/03/23 09:04:42;;;;;;;5.40;2.80;;;9.40;99.90;;;;;;5071265;28;20205;-83
2024/03/23 09:07:09;;;;;;;3.63;2.58;;;9.30;99.90;;;;;;5071738;28;20193;-82
2024/03/23 09:09:37;;;;;;;2.70;2.28;;;9.30;99.90;;;;;;5069489;28;20194;-85
2024/03/23 09:12:04;;;;;;;3.75;2.20;;;9.30;99.90;;;;;;5071047;28;20436;-83
2024/03/23 09:14:30;;;;;;;2.97;2.53;;;9.30;99.90;;;;;;5062337;28;20201;-82
2024/03/23 09:16:58;;;;;;;3.10;2.63;;;9.20;99.90;;;;;;5073541;28;20197;-85
2024/03/23 09:19:27;;;;;;;5.32;2.80;;;9.20;99.90;;;;;;5066303;28;20214;-91
2024/03/23 09:21:54;;;;;;;3.03;2.72;;;9.20;99.90;;;;;;5075165;28;20205;-87
2024/03/23 09:24:19;;;;;;;7.22;3.00;;;9.10;99.90;;;;;;5072218;28;20205;-84
2024/03/23 09:26:46;;;;;;;3.38;2.67;;;9.10;99.90;;;;;;5066884;28;20668;-85
2024/03/23 09:29:12;;;;;;;3.25;2.85;;;9.20;99.90;;;;;;5073969;28;20680;-85
2024/03/23 09:31:40;;;;;;;3.67;2.60;;;9.20;99.90;;;;;;5065300;28;20193;-85
2024/03/23 09:34:08;;;;;;;4.47;2.83;;;9.20;99.90;;;;;;5070032;28;20658;-84
2024/03/23 09:36:34;;;;;;;3.13;2.50;;;9.30;99.90;;;;;;5069218;28;20221;-86
2024/03/23 09:39:00;;;;;;;3.17;2.65;;;9.40;99.90;;;;;;5065413;28;20201;-82
2024/03/23 09:41:27;;;;;;;3.28;2.67;;;9.40;99.90;;;;;;5067308;28;20200;-81
2024/03/23 09:43:53;;;;;;;3.60;2.40;;;9.40;99.90;;;;;;5066907;28;20239;-83
2024/03/23 09:46:20;;;;;;;2.00;1.60;;;9.30;99.90;;;;;;5073347;28;20213;-80
2024/03/23 09:48:47;;;;;;;3.05;1.58;;;9.20;99.90;;;;;;5071133;28;20193;-81
2024/03/23 09:51:15;;;;;;;2.22;1.55;;;9.20;99.70;;;;;;5065397;28;20291;-81
2024/03/23 09:53:41;;;;;;;2.35;1.40;;;9.00;97.60;;;;;;5062925;28;20193;-81
2024/03/23 09:56:09;;;;;;;2.58;1.50;;;8.90;98.70;;;;;;5064573;28;20909;-87
2024/03/23 09:58:35;;;;;;;1.90;1.23;;;8.90;98.30;;;;;;5063807;28;20220;-80
2024/03/23 10:01:03;;;;;;;1.52;1.35;;;8.80;99.30;;;;;;5065700;28;20917;-81
2024/03/23 10:03:29;;;;;;;1.67;1.52;;;8.80;98.70;;;;;;5065943;28;20654;-81
2024/03/23 10:06:03;;;;;;;1.40;1.30;;;8.80;98.50;;;;;;5064278;28;20194;-85
2024/03/23 10:08:31;;;;;;;1.48;1.20;;;8.70;98.00;;;;;;5071681;28;20384;-82
2024/03/23 10:10:58;;;;;;;1.52;1.42;;;8.60;97.90;;;;;;5071450;28;20200;-85
2024/03/23 10:13:25;;;;;;;1.40;1.30;;;8.50;97.90;;;;;;5059306;28;20205;-84
2024/03/23 10:15:57;;;;;;;1.67;1.52;;;8.40;99.60;;;;;;5063855;28;20210;-83
2024/03/23 10:18:24;;;;;;;4.47;1.73;;;8.30;99.90;;;;;;5064731;28;20198;-84
2024/03/23 10:20:53;;;;;;;2.75;1.30;;;8.30;99.90;;;;;;5061691;28;20217;-84
2024/03/23 10:23:19;;;;;;;2.35;1.45;;;8.40;99.90;;;;;;5058174;28;20204;-86
2024/03/23 10:25:47;;;;;;;1.85;1.40;;;8.50;99.90;;;;;;5065183;28;20201;-84
2024/03/23 10:28:13;;;;;;;2.08;1.77;;;8.60;99.90;;;;;;5062030;28;20207;-86
2024/03/23 10:30:40;;;;;;;1.73;1.27;;;8.50;99.90;;;;;;5066172;28;20585;-86
2024/03/23 10:33:09;;;;;;;2.03;1.52;;;8.60;99.90;;;;;;5071287;28;20193;-85
2024/03/23 10:35:37;;;;;;;1.80;1.20;;;8.60;99.90;;;;;;5065253;28;20222;-84
2024/03/23 10:38:05;;;;;;;2.13;1.38;;;8.60;99.90;;;;;;5066246;28;20197;-85
2024/03/23 10:40:32;;;;;;;2.25;1.30;;;8.50;99.90;;;;;;5061032;28;20245;-85
2024/03/23 10:42:59;;;;;;;1.30;1.20;;;8.60;99.90;;;;;;5065600;28;20213;-84
2024/03/23 10:45:26;;;;;;;1.98;1.30;;;8.60;99.90;;;;;;5072718;28;20197;-84
2024/03/23 10:47:52;;;;;;;1.48;1.10;;;8.60;99.90;;;;;;5065501;28;20609;-84
2024/03/23 10:50:19;;;;;;;2.50;1.63;;;8.60;98.50;;;;;;5064712;28;20205;-83
2024/03/23 10:52:47;;;;;;;2.45;1.30;;;8.50;99.20;;;;;;5067767;28;20194;-83
2024/03/23 10:55:16;;;;;;;1.55;1.23;;;8.40;97.70;;;;;;5059034;28;20565;-84
2024/03/23 10:57:48;;;;;;;2.22;1.70;;;8.20;94.40;;;;;;5067716;28;20193;-81
2024/03/23 11:00:17;;;;;;;1.75;1.00;;;7.90;94.00;;;;;;5062463;28;20225;-82
2024/03/23 11:02:43;;;;;;;0.82;0.73;;;7.70;95.60;;;;;;5064616;28;20653;-83
2024/03/23 11:05:32;;;;;;;1.30;1.08;;;7.70;95.60;;;;;;5062557;28;20193;-84
2024/03/23 11:07:58;;;;;;;1.10;1.00;;;7.80;95.70;;;;;;5059244;28;20662;-83
2024/03/23 11:10:29;;;;;;;2.10;0.80;;;7.90;95.70;;;;;;5062419;28;20224;-83
2024/03/23 11:12:55;;;;;;;1.77;1.55;;;8.00;95.70;;;;;;5059281;28;20189;-83
2024/03/23 11:15:23;;;;;;;3.22;1.20;;;8.20;95.70;;;;;;5065803;28;20216;-86
2024/03/23 11:18:04;;;;;;;2.00;1.00;;;8.20;94.90;;;;;;5072165;28;20635;-83
2024/03/23 11:20:33;;;;;;;1.00;0.90;;;8.30;95.80;;;;;;5067667;28;20221;-82
2024/03/23 11:22:59;;;;;;;1.30;1.20;;;8.40;95.80;;;;;;5060156;28;20210;-83
2024/03/23 11:25:28;;;;;;;1.58;1.13;;;8.40;95.00;;;;;;5064726;28;20682;-83
2024/03/23 11:27:55;;;;;;;1.35;1.25;;;8.50;95.30;;;;;;5066933;28;20205;-84
2024/03/23 11:30:25;;;;;;;1.55;1.00;;;8.60;95.20;;;;;;5064807;28;20204;-82
2024/03/23 11:32:53;;;;;;;1.83;1.40;;;8.60;94.60;;;;;;5071088;28;20201;-82
2024/03/23 11:35:27;;;;;;;1.48;1.10;;;8.70;93.70;;;;;;5067124;28;20282;-83
2024/03/23 11:38:06;;;;;;;1.40;1.20;;;8.80;94.60;;;;;;5070973;28;20676;-83
2024/03/23 11:40:34;;;;;;;2.15;1.13;;;9.00;94.20;;;;;;5071190;28;20223;-82
2024/03/23 11:43:01;;;;;;;2.65;1.30;;;9.10;93.70;;;;;;5070881;28;20255;-82
2024/03/23 11:45:29;;;;;;;2.22;1.13;;;9.10;92.80;;;;;;5070605;28;20198;-82
2024/03/23 11:48:10;;;;;;;1.52;1.10;;;9.00;93.20;;;;;;5070413;28;20334;-82
2024/03/23 11:50:38;;;;;;;1.20;1.10;;;9.00;93.40;;;;;;5069685;28;20201;-82
2024/03/23 11:53:17;;;;;;;2.60;1.30;;;8.90;92.60;;;;;;5066154;28;20198;-82
2024/03/23 11:55:48;;;;;;;1.33;1.23;;;8.90;92.50;;;;;;5075351;28;20246;-85
2024/03/23 11:58:16;;;;;;;2.65;1.80;;;9.00;92.10;;;;;;5065721;28;20209;-83
2024/03/23 12:00:49;;;;;;;3.78;1.50;;;9.30;92.20;;;;;;5072049;28;20221;-82
2024/03/23 12:03:17;;;;;;;2.08;1.50;;;9.40;92.20;;;;;;5064008;28;20544;-82
2024/03/23 12:05:48;;;;;;;2.85;2.40;;;9.50;91.80;;;;;;5068252;28;20196;-81
2024/03/23 12:08:19;;;;;;;1.73;1.25;;;9.70;92.00;;;;;;5069870;28;20223;-84
2024/03/23 12:10:48;;;;;;;2.33;1.30;;;9.80;91.60;;;;;;5073398;28;20201;-84
2024/03/23 12:13:17;;;;;;;3.80;1.88;;;9.70;90.60;;;;;;5069017;28;20630;-84
2024/03/23 12:15:45;;;;;;;2.17;1.60;;;9.70;91.10;;;;;;5067254;28;20209;-85
2024/03/23 12:18:12;;;;;;;2.63;1.58;;;9.70;91.10;;;;;;5066893;28;20259;-85
2024/03/23 12:20:38;;;;;;;3.13;1.65;;;9.40;91.10;;;;;;5067781;28;20225;-85
2024/03/23 12:23:07;;;;;;;4.28;2.30;;;9.20;92.00;;;;;;5067618;28;20566;-85
2024/03/23 12:25:34;;;;;;;2.83;1.60;;;9.00;93.20;;;;;;5066964;28;20197;-85
2024/03/23 12:28:01;;;;;;;14.50;6.45;;;8.90;93.90;;;;;;5071417;28;20247;-85
2024/03/23 12:30:27;;;;;;;3.85;2.25;;;8.80;91.80;;;;;;5069626;28;20202;-87
2024/03/23 12:32:55;;;;;;;3.67;2.10;;;8.80;92.90;;;;;;5065182;28;20189;-83
2024/03/23 12:35:21;;;;;;;3.95;1.90;;;8.70;93.20;;;;;;5070732;28;20216;-84
2024/03/23 12:37:48;;;;;;;4.50;2.17;;;8.70;90.40;;;;;;5068807;28;20662;-85
2024/03/23 12:40:14;;;;;;;2.35;1.60;;;8.70;83.60;;;;;;5066300;28;20221;-81
2024/03/23 12:42:41;;;;;;;11.35;7.65;;;8.80;78.50;;;;;;5071312;28;20197;-85
2024/03/23 12:45:07;;;;;;;3.08;1.80;;;8.90;77.20;;;;;;5064341;28;20193;-84
2024/03/23 12:47:34;;;;;;;3.13;2.03;;;9.10;76.90;;;;;;5067122;28;20197;-82
2024/03/23 12:50:02;;;;;;;2.92;1.90;;;9.20;77.00;;;;;;5071878;28;20201;-83
2024/03/23 12:52:29;;;;;;;5.35;2.22;;;9.30;74.20;;;;;;5071660;28;20209;-82
2024/03/23 12:54:56;;;;;;;4.72;2.30;;;9.40;69.30;;;;;;5072154;28;20713;-83
2024/03/23 12:57:24;;;;;;;2.85;1.98;;;9.50;68.90;;;;;;5072613;28;20208;-83